createdAt,value
2022-11-07T00:00:22.454Z,2.20
2022-11-07T00:02:50.317Z,2.13
2022-11-07T00:05:18.274Z,2.30
2022-11-07T00:07:46.290Z,1.92
2022-11-07T00:10:15.745Z,2.10
2022-11-07T00:12:43.632Z,2.33
2022-11-07T00:15:13.180Z,2.00
2022-11-07T00:17:41.124Z,2.70
2022-11-07T00:20:10.151Z,2.45
2022-11-07T00:22:38.088Z,2.42
2022-11-07T00:25:06.953Z,2.50
2022-11-07T00:27:34.874Z,2.10
2022-11-07T00:30:02.981Z,2.60
2022-11-07T00:32:32.464Z,1.98
2022-11-07T00:35:03.445Z,2.47
2022-11-07T00:37:31.376Z,2.22
2022-11-07T00:39:59.340Z,2.30
2022-11-07T00:42:27.312Z,2.60
2022-11-07T00:44:55.239Z,2.30
2022-11-07T00:47:23.169Z,1.98
2022-11-07T00:49:52.604Z,2.63
2022-11-07T00:52:20.570Z,2.80
2022-11-07T00:54:48.608Z,2.08
2022-11-07T00:57:16.535Z,2.40
2022-11-07T00:59:44.474Z,2.40
2022-11-07T01:02:12.502Z,2.40
2022-11-07T01:04:57.959Z,3.42
2022-11-07T01:07:27.257Z,2.70
2022-11-07T01:09:55.253Z,2.70
2022-11-07T01:12:23.157Z,2.30
2022-11-07T01:14:52.186Z,2.47
2022-11-07T01:17:20.055Z,2.17
2022-11-07T01:19:48.262Z,2.72
2022-11-07T01:22:16.282Z,2.38
2022-11-07T01:24:45.649Z,2.58
2022-11-07T01:27:13.581Z,2.20
2022-11-07T01:29:41.713Z,1.90
2022-11-07T01:32:09.596Z,2.50
2022-11-07T01:34:37.468Z,2.33
2022-11-07T01:37:05.478Z,1.92
2022-11-07T01:39:33.472Z,2.33
2022-11-07T01:42:02.958Z,2.30
2022-11-07T01:45:01.309Z,2.38
2022-11-07T01:47:35.071Z,2.30
2022-11-07T01:50:03.682Z,1.98
2022-11-07T01:52:34.780Z,1.85
2022-11-07T01:55:09.209Z,2.25
2022-11-07T01:57:41.920Z,2.10
2022-11-07T02:00:13.594Z,2.33
2022-11-07T02:02:42.731Z,1.93
2022-11-07T02:05:15.666Z,2.03
2022-11-07T02:07:44.234Z,2.05
2022-11-07T02:10:13.103Z,2.03
2022-11-07T02:12:43.327Z,2.08
2022-11-07T02:15:12.470Z,1.75
2022-11-07T02:17:40.521Z,2.42
2022-11-07T02:20:09.369Z,2.58
2022-11-07T02:22:44.241Z,1.90
2022-11-07T02:25:15.754Z,1.77
2022-11-07T02:27:45.230Z,2.45
2022-11-07T02:30:16.810Z,2.25
2022-11-07T02:32:44.875Z,1.87
2022-11-07T02:35:36.080Z,2.42
2022-11-07T02:38:05.329Z,1.80
2022-11-07T02:40:35.015Z,2.20
2022-11-07T02:43:04.625Z,1.95
2022-11-07T02:45:35.654Z,1.85
2022-11-07T02:48:03.553Z,1.83
2022-11-07T02:50:31.417Z,2.38
2022-11-07T02:52:59.484Z,2.30
2022-11-07T02:55:27.427Z,2.05
2022-11-07T02:57:56.739Z,1.95
2022-11-07T03:00:24.914Z,2.40
2022-11-07T03:02:52.878Z,2.53
2022-11-07T03:05:22.026Z,2.30
2022-11-07T03:07:50.974Z,2.58
2022-11-07T03:10:19.874Z,2.60
2022-11-07T03:12:47.850Z,2.60
2022-11-07T03:15:17.255Z,2.45
2022-11-07T03:17:45.101Z,2.42
2022-11-07T03:20:13.485Z,2.75
2022-11-07T03:22:41.634Z,2.40
2022-11-07T03:25:09.595Z,3.00
2022-11-07T03:27:37.909Z,3.08
2022-11-07T03:30:06.620Z,2.45
2022-11-07T03:32:35.941Z,2.42
2022-11-07T03:35:04.377Z,2.50
2022-11-07T03:37:37.897Z,2.60
2022-11-07T03:40:07.750Z,2.30
2022-11-07T03:42:40.155Z,2.30
2022-11-07T03:45:11.099Z,2.90
2022-11-07T03:47:42.579Z,2.28
2022-11-07T03:50:13.892Z,2.60
2022-11-07T03:52:42.057Z,2.13
2022-11-07T03:55:11.934Z,2.13
2022-11-07T03:57:42.536Z,2.00
2022-11-07T04:00:14.568Z,2.45
2022-11-07T04:02:44.279Z,1.70
2022-11-07T04:05:12.739Z,2.38
2022-11-07T04:07:40.792Z,2.05
2022-11-07T04:10:08.859Z,2.05
2022-11-07T04:12:54.410Z,2.10
2022-11-07T04:15:39.896Z,1.77
2022-11-07T04:18:09.125Z,1.95
2022-11-07T04:20:36.973Z,1.90
2022-11-07T04:23:04.831Z,1.85
2022-11-07T04:25:50.176Z,2.03
2022-11-07T04:28:23.648Z,2.00
2022-11-07T04:30:56.004Z,2.20
2022-11-07T04:33:25.534Z,1.95
2022-11-07T04:35:53.788Z,1.98
2022-11-07T04:38:22.060Z,1.88
2022-11-07T04:40:57.842Z,2.22
2022-11-07T04:43:29.866Z,2.10
2022-11-07T04:45:58.326Z,2.10
2022-11-07T04:48:30.219Z,1.63
2022-11-07T04:50:58.407Z,1.92
2022-11-07T04:53:26.565Z,1.95
2022-11-07T04:55:57.873Z,1.70
2022-11-07T04:58:28.439Z,2.00
2022-11-07T05:00:59.332Z,1.92
2022-11-07T05:03:28.787Z,1.83
2022-11-07T05:05:56.941Z,1.80
2022-11-07T05:08:24.994Z,2.03
2022-11-07T05:10:54.110Z,1.60
2022-11-07T05:13:24.566Z,1.92
2022-11-07T05:15:56.626Z,2.00
2022-11-07T05:18:27.548Z,1.92
2022-11-07T05:21:05.624Z,1.95
2022-11-07T05:23:42.895Z,1.90
2022-11-07T05:26:13.033Z,1.55
2022-11-07T05:28:43.471Z,1.60
2022-11-07T05:31:20.130Z,1.73
2022-11-07T05:33:48.574Z,1.48
2022-11-07T05:36:23.152Z,1.90
2022-11-07T05:38:54.054Z,2.00
2022-11-07T05:41:23.574Z,1.55
2022-11-07T05:43:54.747Z,1.70
2022-11-07T05:46:26.083Z,1.58
2022-11-07T05:48:59.583Z,1.90
2022-11-07T05:51:30.445Z,1.50
2022-11-07T05:53:58.808Z,1.83
2022-11-07T05:56:29.746Z,1.70
2022-11-07T05:58:58.009Z,1.63
2022-11-07T06:01:37.046Z,1.70
2022-11-07T06:04:05.536Z,1.38
2022-11-07T06:06:35.162Z,1.75
2022-11-07T06:09:03.237Z,1.70
2022-11-07T06:11:32.696Z,1.52
2022-11-07T06:14:01.042Z,1.65
2022-11-07T06:16:29.279Z,2.03
2022-11-07T06:18:57.243Z,2.00
2022-11-07T06:21:25.156Z,1.80
2022-11-07T06:23:54.551Z,1.52
2022-11-07T06:26:22.485Z,1.65
2022-11-07T06:28:50.425Z,1.30
2022-11-07T06:31:18.475Z,1.60
2022-11-07T06:33:46.416Z,1.52
2022-11-07T06:36:15.107Z,1.90
2022-11-07T06:38:43.129Z,2.67
2022-11-07T06:41:25.739Z,1.70
2022-11-07T06:46:25.225Z,1.60
2022-11-07T06:48:57.245Z,1.77
2022-11-07T06:51:27.182Z,1.98
2022-11-07T06:53:56.321Z,1.70
2022-11-07T06:56:38.824Z,1.52
2022-11-07T06:59:09.522Z,1.67
2022-11-07T07:02:09.808Z,1.80
2022-11-07T07:04:40.794Z,1.38
2022-11-07T07:07:21.351Z,1.73
2022-11-07T07:09:53.360Z,1.73
2022-11-07T07:12:29.729Z,1.58
2022-11-07T07:15:00.759Z,1.58
2022-11-07T07:17:28.809Z,1.20
2022-11-07T07:19:59.035Z,1.50
2022-11-07T07:23:04.386Z,1.10
2022-11-07T07:25:46.051Z,1.48
2022-11-07T07:28:18.349Z,1.88
2022-11-07T07:30:52.957Z,1.70
2022-11-07T07:33:21.223Z,1.05
2022-11-07T07:36:02.584Z,1.33
2022-11-07T07:38:36.348Z,1.73
2022-11-07T07:41:07.607Z,1.63
2022-11-07T07:43:37.083Z,1.10
2022-11-07T07:46:07.038Z,1.58
2022-11-07T07:48:35.426Z,1.42
2022-11-07T07:51:03.637Z,1.48
2022-11-07T07:53:31.689Z,1.65
2022-11-07T07:56:07.505Z,1.58
2022-11-07T07:58:38.189Z,1.50
2022-11-07T08:01:12.287Z,1.85
2022-11-07T08:04:00.263Z,1.40
2022-11-07T08:06:28.101Z,1.52
2022-11-07T08:08:56.050Z,1.40
2022-11-07T08:11:24.115Z,1.60
2022-11-07T08:13:56.088Z,1.40
2022-11-07T08:16:27.760Z,1.55
2022-11-07T08:18:58.007Z,1.60
2022-11-07T08:21:26.046Z,1.65
2022-11-07T08:23:54.911Z,1.42
2022-11-07T08:26:23.177Z,1.40
2022-11-07T08:28:57.521Z,1.55
2022-11-07T08:31:27.029Z,1.73
2022-11-07T08:34:02.963Z,1.75
2022-11-07T08:36:31.449Z,1.50
2022-11-07T08:39:02.747Z,1.60
2022-11-07T08:41:44.003Z,1.42
2022-11-07T08:44:25.854Z,1.83
2022-11-07T08:47:48.606Z,1.48
2022-11-07T08:50:19.716Z,1.42
2022-11-07T08:52:50.691Z,1.27
2022-11-07T08:55:18.804Z,1.48
2022-11-07T08:57:46.768Z,2.13
2022-11-07T09:00:17.584Z,1.45
2022-11-07T09:05:38.354Z,1.80
2022-11-07T09:08:07.598Z,1.67
2022-11-07T09:10:36.026Z,1.00
2022-11-07T09:13:04.283Z,1.23
2022-11-07T09:15:32.517Z,1.40
2022-11-07T09:18:06.225Z,1.75
2022-11-07T09:20:38.628Z,1.58
2022-11-07T09:23:06.755Z,1.60
2022-11-07T09:25:34.834Z,1.65
2022-11-07T09:28:04.022Z,1.63
2022-11-07T09:30:32.506Z,1.88
2022-11-07T09:33:01.012Z,1.63
2022-11-07T09:35:30.387Z,2.10
2022-11-07T09:37:58.800Z,2.10
2022-11-07T09:40:40.544Z,1.60
2022-11-07T09:43:22.440Z,1.40
2022-11-07T09:45:55.677Z,1.50
2022-11-07T09:48:27.447Z,1.58
2022-11-07T09:50:57.522Z,1.57
2022-11-07T09:53:31.133Z,1.60
2022-11-07T09:56:04.006Z,1.52
2022-11-07T09:58:37.603Z,1.77
2022-11-07T10:01:08.087Z,2.22
2022-11-07T10:03:49.104Z,1.35
2022-11-07T10:06:30.810Z,1.40
2022-11-07T10:09:09.027Z,1.35
2022-11-07T10:11:41.922Z,1.40
2022-11-07T10:14:20.547Z,1.50
2022-11-07T10:17:05.953Z,1.40
2022-11-07T10:19:43.874Z,1.30
2022-11-07T10:22:22.731Z,1.35
2022-11-07T10:25:07.998Z,0.95
2022-11-07T10:27:38.206Z,1.70
2022-11-07T10:30:15.863Z,2.00
2022-11-07T10:32:53.233Z,1.60
2022-11-07T10:35:28.282Z,1.00
2022-11-07T10:38:00.408Z,1.50
2022-11-07T10:40:35.601Z,1.65
2022-11-07T10:43:09.144Z,1.55
2022-11-07T10:45:41.278Z,1.73
2022-11-07T10:48:13.594Z,0.95
2022-11-07T10:53:21.313Z,1.30
2022-11-07T10:55:51.299Z,1.13
2022-11-07T10:58:21.691Z,1.35
2022-11-07T11:01:02.142Z,0.95
2022-11-07T11:03:43.654Z,1.20
2022-11-07T11:06:21.777Z,1.20
2022-11-07T11:08:53.284Z,1.67
2022-11-07T11:11:38.969Z,1.17
2022-11-07T11:14:12.465Z,1.33
2022-11-07T11:16:45.794Z,1.02
2022-11-07T11:19:26.225Z,1.10
2022-11-07T11:21:58.842Z,1.38
2022-11-07T11:24:34.324Z,1.00
2022-11-07T11:27:08.263Z,0.90
2022-11-07T11:29:42.766Z,1.08
2022-11-07T11:32:21.351Z,1.10
2022-11-07T11:35:00.397Z,1.10
2022-11-07T11:37:28.986Z,1.25
2022-11-07T11:40:34.295Z,1.25
2022-11-07T11:43:15.111Z,1.10
2022-11-07T11:45:50.696Z,1.15
2022-11-07T11:48:26.276Z,1.00
2022-11-07T11:50:58.408Z,1.20
2022-11-07T11:53:30.154Z,1.13
2022-11-07T11:56:18.098Z,0.88
2022-11-07T11:58:55.663Z,1.10
2022-11-07T12:01:33.475Z,1.52
2022-11-07T12:04:48.216Z,1.10
2022-11-07T12:07:34.362Z,1.55
2022-11-07T12:10:07.767Z,0.93
2022-11-07T12:12:49.540Z,0.90
2022-11-07T12:15:42.434Z,1.23
2022-11-07T12:18:23.416Z,1.00
2022-11-07T12:21:03.171Z,1.27
2022-11-07T12:23:48.101Z,1.33
2022-11-07T12:26:22.308Z,1.20
2022-11-07T12:29:02.805Z,1.27
2022-11-07T12:31:42.027Z,0.93
2022-11-07T12:34:21.533Z,1.20
2022-11-07T12:37:05.478Z,1.42
2022-11-07T12:39:49.223Z,1.23
2022-11-07T12:42:31.293Z,1.30
2022-11-07T12:45:11.311Z,1.23
2022-11-07T12:48:10.211Z,1.33
2022-11-07T12:50:45.496Z,1.02
2022-11-07T12:53:28.884Z,1.20
2022-11-07T12:56:03.706Z,1.33
2022-11-07T12:58:38.531Z,1.25
2022-11-07T13:01:08.980Z,1.20
2022-11-07T13:03:54.564Z,1.23
2022-11-07T13:06:29.071Z,0.90
2022-11-07T13:09:06.689Z,1.35
2022-11-07T13:11:43.196Z,1.40
2022-11-07T13:14:25.432Z,1.10
2022-11-07T13:17:15.053Z,1.40
2022-11-07T13:19:46.266Z,2.08
2022-11-07T13:22:33.974Z,1.30
2022-11-07T13:25:24.813Z,1.42
2022-11-07T13:28:03.735Z,1.50
2022-11-07T13:30:36.843Z,1.15
2022-11-07T13:33:09.112Z,1.05
2022-11-07T13:35:39.468Z,1.20
2022-11-07T13:38:14.123Z,1.40
2022-11-07T13:40:47.979Z,1.90
2022-11-07T13:43:19.413Z,1.38
2022-11-07T13:45:50.785Z,1.17
2022-11-07T13:48:24.270Z,1.50
2022-11-07T13:51:00.259Z,1.85
2022-11-07T13:53:36.905Z,1.20
2022-11-07T13:56:16.168Z,1.70
2022-11-07T13:58:45.861Z,1.58
2022-11-07T14:01:14.966Z,2.15
2022-11-07T14:03:47.567Z,1.63
2022-11-07T14:08:47.774Z,1.40
2022-11-07T14:11:19.073Z,1.45
2022-11-07T14:13:49.234Z,1.33
2022-11-07T14:16:21.338Z,1.38
2022-11-07T14:18:53.633Z,1.80
2022-11-07T14:21:23.677Z,1.20
2022-11-07T14:23:51.803Z,1.80
2022-11-07T14:26:23.344Z,2.15
2022-11-07T14:28:51.619Z,2.00
2022-11-07T14:31:21.742Z,2.03
2022-11-07T14:33:55.126Z,1.50
2022-11-07T14:36:24.585Z,7.30
2022-11-07T14:39:00.859Z,2.03
2022-11-07T14:41:29.364Z,1.50
2022-11-07T14:44:00.925Z,1.30
2022-11-07T14:46:29.495Z,1.50
2022-11-07T14:48:59.219Z,1.23
2022-11-07T14:51:29.590Z,2.03
2022-11-07T14:54:02.673Z,1.20
2022-11-07T14:56:33.871Z,1.50
2022-11-07T14:59:02.168Z,1.55
2022-11-07T15:01:32.410Z,1.83
2022-11-07T15:04:04.989Z,1.48
2022-11-07T15:09:04.921Z,1.35
2022-11-07T15:11:35.219Z,1.20
2022-11-07T15:14:07.159Z,1.90
2022-11-07T15:16:39.048Z,1.48
2022-11-07T15:19:11.158Z,1.58
2022-11-07T15:21:51.810Z,2.05
2022-11-07T15:24:35.143Z,1.10
2022-11-07T15:27:06.181Z,1.70
2022-11-07T15:29:35.985Z,1.48
2022-11-07T15:32:13.518Z,1.33
2022-11-07T15:35:03.777Z,2.00
2022-11-07T15:37:31.334Z,1.40
2022-11-07T15:40:00.728Z,2.90
2022-11-07T15:42:28.700Z,2.20
2022-11-07T15:44:56.634Z,2.72
2022-11-07T15:47:24.572Z,1.88
2022-11-07T15:49:53.991Z,1.52
2022-11-07T15:52:22.049Z,1.40
2022-11-07T15:54:50.080Z,1.77
2022-11-07T15:57:21.179Z,1.50
2022-11-07T15:59:49.334Z,1.65
2022-11-07T16:02:21.371Z,1.77
2022-11-07T16:04:49.434Z,1.65
2022-11-07T16:07:21.190Z,1.70
2022-11-07T16:09:49.435Z,1.20
2022-11-07T16:12:19.561Z,2.15
2022-11-07T16:22:19.222Z,1.38
2022-11-07T16:24:48.365Z,1.70
2022-11-07T16:27:18.575Z,1.90
2022-11-07T16:29:47.934Z,1.65
2022-11-07T16:32:18.326Z,1.60
2022-11-07T16:34:48.640Z,1.40
2022-11-07T16:37:18.438Z,2.10
2022-11-07T16:39:46.572Z,1.73
2022-11-07T16:42:16.529Z,1.85
2022-11-07T16:44:45.034Z,1.63
2022-11-07T16:47:16.214Z,1.40
2022-11-07T16:50:17.040Z,2.13
2022-11-07T16:53:04.239Z,1.98
2022-11-07T16:55:33.826Z,1.80
2022-11-07T16:58:01.922Z,2.63
2022-11-07T17:00:30.118Z,2.15
2022-11-07T17:03:00.228Z,1.95
2022-11-07T17:05:28.498Z,2.22
2022-11-07T17:07:57.126Z,2.10
2022-11-07T17:10:29.432Z,2.03
2022-11-07T17:13:00.586Z,2.50
2022-11-07T17:15:28.948Z,2.30
2022-11-07T17:18:05.860Z,2.42
2022-11-07T17:20:50.903Z,2.40
2022-11-07T17:23:22.872Z,2.92
2022-11-07T17:25:57.517Z,2.63
2022-11-07T17:28:26.460Z,2.72
2022-11-07T17:31:00.913Z,2.47
2022-11-07T17:33:42.800Z,2.10
2022-11-07T17:36:37.498Z,2.43
2022-11-07T17:39:11.401Z,2.05
2022-11-07T17:41:43.665Z,2.30
2022-11-07T17:44:18.814Z,2.08
2022-11-07T17:47:19.333Z,2.70
2022-11-07T17:49:50.867Z,2.08
2022-11-07T17:52:31.284Z,2.33
2022-11-07T17:55:09.233Z,3.30
2022-11-07T17:57:48.800Z,3.78
2022-11-07T18:00:19.256Z,10.77
2022-11-07T18:02:49.428Z,14.05
2022-11-07T18:05:22.998Z,9.98
2022-11-07T18:07:55.487Z,9.30
2022-11-07T18:10:24.083Z,6.55
2022-11-07T18:12:53.749Z,4.35
2022-11-07T18:18:21.547Z,3.78
2022-11-07T18:20:49.783Z,3.70
2022-11-07T18:23:18.007Z,3.28
2022-11-07T18:25:46.219Z,2.45
2022-11-07T18:28:19.383Z,2.63
2022-11-07T18:30:48.701Z,2.13
2022-11-07T18:33:16.856Z,1.95
2022-11-07T18:36:00.502Z,2.13
2022-11-07T18:38:41.643Z,2.15
2022-11-07T18:41:16.410Z,1.80
2022-11-07T18:44:04.863Z,1.83
2022-11-07T18:46:36.531Z,1.90
2022-11-07T18:49:06.393Z,1.45
2022-11-07T18:51:40.184Z,2.15
2022-11-07T18:54:08.552Z,2.25
2022-11-07T18:56:36.556Z,1.50
2022-11-07T18:59:06.071Z,1.80
2022-11-07T19:01:34.600Z,1.70
2022-11-07T19:04:29.652Z,1.90
2022-11-07T19:06:58.407Z,1.92
2022-11-07T19:09:29.615Z,1.88
2022-11-07T19:12:05.687Z,1.83
2022-11-07T19:14:39.623Z,2.25
2022-11-07T19:17:08.967Z,2.15
2022-11-07T19:19:48.922Z,2.05
2022-11-07T19:22:23.183Z,2.45
2022-11-07T19:24:59.164Z,1.92
2022-11-07T19:27:33.171Z,2.35
2022-11-07T19:30:06.467Z,2.08
2022-11-07T19:33:00.308Z,2.90
2022-11-07T19:35:33.362Z,2.33
2022-11-07T19:38:08.656Z,2.40
2022-11-07T19:41:09.189Z,3.22
2022-11-07T19:43:37.397Z,2.55
2022-11-07T19:46:09.933Z,2.45
2022-11-07T19:51:22.457Z,2.92
2022-11-07T19:54:02.900Z,3.17
2022-11-07T19:56:33.214Z,3.38
2022-11-07T19:59:03.176Z,2.80
2022-11-07T20:01:36.074Z,2.72
2022-11-07T20:04:07.471Z,2.95
2022-11-07T20:06:37.717Z,3.15
2022-11-07T20:09:09.334Z,3.40
2022-11-07T20:11:38.354Z,2.35
2022-11-07T20:14:07.527Z,3.45
2022-11-07T20:16:37.647Z,3.03
2022-11-07T20:19:14.055Z,2.90
2022-11-07T20:22:04.545Z,2.90
2022-11-07T20:24:32.725Z,5.00
2022-11-07T20:27:03.294Z,4.38
2022-11-07T20:29:40.079Z,7.30
2022-11-07T20:32:11.706Z,4.68
2022-11-07T20:34:42.059Z,4.78
2022-11-07T20:37:10.367Z,3.85
2022-11-07T20:39:42.505Z,3.88
2022-11-07T20:42:14.972Z,4.00
2022-11-07T20:47:22.682Z,3.58
2022-11-07T20:49:51.155Z,3.85
2022-11-07T20:52:21.102Z,3.80
2022-11-07T20:55:36.464Z,3.38
2022-11-07T20:57:59.580Z,3.20
2022-11-07T21:00:28.138Z,3.05
2022-11-07T21:02:57.866Z,3.50
2022-11-07T21:05:28.556Z,3.50
2022-11-07T21:08:11.647Z,3.28
2022-11-07T21:10:47.547Z,3.22
2022-11-07T21:13:27.151Z,3.70
2022-11-07T21:15:57.711Z,4.10
2022-11-07T21:18:29.484Z,3.40
2022-11-07T21:21:10.569Z,3.50
2022-11-07T21:24:00.121Z,3.80
2022-11-07T21:26:31.974Z,3.33
2022-11-07T21:29:05.681Z,3.30
2022-11-07T21:31:44.569Z,3.67
2022-11-07T21:34:14.543Z,3.22
2022-11-07T21:36:45.315Z,3.13
2022-11-07T21:39:17.724Z,3.75
2022-11-07T21:41:46.008Z,3.63
2022-11-07T21:44:22.327Z,3.47
2022-11-07T21:46:50.524Z,3.65
2022-11-07T21:49:20.101Z,3.85
2022-11-07T21:51:51.102Z,4.63
2022-11-07T21:54:22.310Z,4.50
2022-11-07T21:57:03.345Z,4.25
2022-11-07T21:59:31.627Z,4.60
2022-11-07T22:01:59.926Z,4.25
2022-11-07T22:04:29.606Z,4.07
2022-11-07T22:07:00.492Z,4.15
2022-11-07T22:09:28.806Z,4.63
2022-11-07T22:11:56.847Z,4.25
2022-11-07T22:14:24.826Z,4.82
2022-11-07T22:16:55.953Z,3.67
2022-11-07T22:19:24.103Z,4.45
2022-11-07T22:21:53.877Z,4.25
2022-11-07T22:24:31.396Z,4.93
2022-11-07T22:27:06.331Z,4.32
2022-11-07T22:29:37.966Z,4.57
2022-11-07T22:32:06.606Z,4.47
2022-11-07T22:34:38.079Z,3.95
2022-11-07T22:37:10.788Z,4.00
2022-11-07T22:39:39.368Z,3.88
2022-11-07T22:42:07.768Z,4.18
2022-11-07T22:44:35.865Z,4.63
2022-11-07T22:47:04.261Z,3.70
2022-11-07T22:49:32.549Z,3.92
2022-11-07T22:52:00.764Z,4.40
2022-11-07T22:54:30.354Z,4.05
2022-11-07T22:56:58.653Z,4.70
2022-11-07T22:59:26.905Z,5.25
2022-11-07T23:01:55.099Z,5.15
2022-11-07T23:04:23.223Z,4.40
2022-11-07T23:06:51.360Z,5.40
2022-11-07T23:09:19.683Z,7.03
2022-11-07T23:11:49.318Z,5.10
2022-11-07T23:14:19.197Z,5.55
2022-11-07T23:16:49.302Z,6.60
2022-11-07T23:19:20.157Z,5.45
2022-11-07T23:21:48.876Z,6.88
2022-11-07T23:24:19.053Z,6.30
2022-11-07T23:26:50.986Z,6.65
2022-11-07T23:29:21.702Z,8.27
2022-11-07T23:31:53.327Z,7.65
2022-11-07T23:34:23.116Z,7.07
2022-11-07T23:36:55.510Z,8.57
2022-11-07T23:41:55.605Z,7.10
2022-11-07T23:44:23.674Z,6.25
2022-11-07T23:47:09.391Z,6.70
2022-11-07T23:49:54.810Z,6.50
2022-11-07T23:52:23.289Z,6.28
2022-11-07T23:55:14.074Z,6.05
2022-11-07T23:58:03.294Z,5.00
